logo
App data

Act of War: Direct Action

Tomorrow's War Is NOW Ripped from today's headlines, Act of War: Direct Action™ is a frightening tale of suspense, international intrigue and geopolitical military conflict. This real-time strategy experience puts you squarely in control of counterterrorist forces and delivers a first look at tomorrow's war.
Store | Hub | SteamDB
Developer: Eugen Systems Publisher: THQ Nordic
Genre: Action
Languages: English
Tags: Action (27), Strategy (18), RTS (15)
Category: Single-player, Multi-player
Release date: Mar 12, 2008
Price: $1.19 60%
Score rank: 61% Userscore: 84% Old userscore: 83% Metascore: 82%
Owners: 20,000 .. 50,000
Followers: 921
Peak concurrent players yesterday: 15
Playtime total: 04:16 (average) 01:07 (median)

Steam Spy is still in beta, so expect major bugs.

Owners data:

Access restricted.

This feature is only available to users with special access rights. Sorry.

If you want to proceed, you need to register or log in first and then back Steam Spy on Patreon. Look for Indie or Pro pledge.

Don't forget to use the same email as on Steam Spy!

Audience in 2 weeks:

Access restricted.

This feature is only available to users with special access rights. Sorry.

If you want to proceed, you need to register or log in first and then back Steam Spy on Patreon. Look for Indie or Pro pledge.

Don't forget to use the same email as on Steam Spy!

Peak daily concurrent players:

CCU data courtesy of SteamDB. Used with permission.

Hourly concurrent players:

Daily Twitch stats:

Hourly Twitch stats:

YouTube:

The views data is based on top 50 videos uploaded last week. Actual number of views might be more than the number shown.

The displayed number of videos uploaded yesterday is limited to 50, so if there were more videos uploaded, the number will still show 50.

If the game has commonly used word as its name (like "FEAR" or "Volume") its number of Youtube views might be wrong.

Games similar to this one:

# Game Release date
Price
Score rank
(Userscore / Metascore)
Owners
Players
Playtime (Median)
1 Little Big Adventure 2 Oct 20, 2015 $3.9999% (98%)20,000 .. 50,0000%00:00 (00:00)
2 Seven Kingdoms: Ancient Adversaries Jun 8, 1998 $5.99N/A (N/A)0 .. 20,0000%00:00 (00:00)
3 Dungeon Warfare Nov 4, 2015 $9.9997% (97%)20,000 .. 50,0001.35%00:23 (00:07)
4 Defend The Highlands Nov 6, 2015 $9.99N/A (N/A)100,000 .. 200,0000%00:00 (00:00)
5 Voodoo Vince: Remastered Apr 17, 2017 $14.9995% (96%/63%)0 .. 20,0000%00:00 (00:00)
6 Militia Dec 2, 2015 $5.9995% (96%)0 .. 20,0000%00:00 (00:00)
7 Imperium Galactica Jan 19, 2017 $4.99N/A (N/A)0 .. 20,0000%00:00 (00:00)
8 Chicken Invaders 2 Mar 4, 2016 $3.9993% (95%)0 .. 20,0000%00:00 (00:00)
9 Flywrench Aug 24, 2015 $6.9993% (95%)0 .. 20,0000%00:00 (00:00)
10 Templar Battleforce Sep 21, 2015 $9.9993% (95%)20,000 .. 50,0000%00:00 (00:00)
11 Supercharged Robot VULKAISER Jun 4, 2015 $4.9993% (95%)20,000 .. 50,0000%00:00 (00:00)
12 Hegemony Gold: Wars of Ancient Greece Mar 30, 2012 $14.9993% (95%)20,000 .. 50,0000%00:00 (00:00)
13 Majesty Gold HD Mar 23, 2001 $9.9990% (94%)100,000 .. 200,0000%00:00 (00:00)
14 Gold Rush! Classic Dec 23, 1988 $2.9990% (94%)200,000 .. 500,0000.24%03:02 (01:56)
15 Neon Chrome Apr 28, 2016 $14.9990% (94%/74%)200,000 .. 500,0000%00:00 (00:00)
16 Stick it to The Man! Dec 13, 2013 $7.9990% (94%/83%)20,000 .. 50,0000%00:00 (00:00)
17 ESCHATOS Sep 18, 2015 $14.9990% (94%)0 .. 20,0000%00:00 (00:00)
18 Star Trek: Judgment Rites May 8, 2015 $9.99N/A (N/A)0 .. 20,0000%00:00 (00:00)
19 Outcast 1.1 Dec 18, 2014 $5.9990% (94%)20,000 .. 50,0000%00:00 (00:00)
20 PixelJunk Shooter Nov 11, 2013 $8.9990% (94%/73%)100,000 .. 200,0000.62%01:12 (00:40)
21 Audio Arena Jul 25, 2016 $6.99N/A (N/A)0 .. 20,0000%00:00 (00:00)
22 Adventure in the Tower of Flight Dec 23, 2015 $4.99N/A (N/A)0 .. 20,0000%00:00 (00:00)
23 Major Mayhem Feb 24, 2014 $4.9987% (93%)20,000 .. 50,0000%00:00 (00:00)
24 Run or Die Dec 11, 2014 $4.9987% (93%)0 .. 20,0000%00:00 (00:00)
25 Super Trench Attack! Jul 24, 2014 $4.9987% (93%)50,000 .. 100,0000.87%00:22 (00:14)
26 Bleed Jul 3, 2013 $1.9987% (93%)100,000 .. 200,0001.2%00:41 (00:27)
27 Pharaoh Rebirth+ Mar 17, 2016 $9.9987% (93%)0 .. 20,0005.26%10:27 (03:29)
28 Eufloria HD Oct 14, 2014 $14.9987% (93%)200,000 .. 500,0000%00:00 (00:00)
29 Handsome Mr. Frog Aug 8, 2016 $0.9987% (93%)0 .. 20,0000%00:00 (00:00)
30 Kalimba Apr 22, 2015 $9.9987% (93%/81%)0 .. 20,0000%00:00 (00:00)
31 Anarcute Jul 12, 2016 $14.9987% (93%/79%)0 .. 20,0000%00:00 (00:00)
32 Kick Ass Commandos Nov 17, 2016 $4.9987% (93%)20,000 .. 50,0000%00:00 (00:00)
33 Tallowmere Mar 3, 2015 $3.9983% (92%)20,000 .. 50,0002.22%00:29 (00:09)
34 Counter Spell Oct 5, 2015 $9.9983% (92%)0 .. 20,00020%00:07 (00:03)
35 Wars and Warriors: Joan of Arc Feb 7, 2004 $6.9983% (92%/60%)0 .. 20,0000%00:00 (00:00)
36 Ys VI: The Ark of Napishtim Apr 28, 2015 $19.9983% (92%/76%)50,000 .. 100,0001.22%02:58 (00:59)
37 Shmups Skill Test シューティング技能検定 Jun 9, 2016 $4.99N/A (N/A)0 .. 20,0000%00:00 (00:00)
38 Ittle Dew Jul 23, 2013 $9.9983% (92%/67%)100,000 .. 200,0000.39%00:08 (00:02)
39 Darknet Jun 8, 2017 $14.99N/A (N/A)0 .. 20,0000%00:00 (00:00)
40 Death Ray Manta SE Sep 17, 2015 $1.9983% (92%)20,000 .. 50,0000%00:00 (00:00)
41 Knightmare Tower Jun 16, 2014 $3.9983% (92%)0 .. 20,0000%00:00 (00:00)
42 Great Big War Game Aug 28, 2012 $6.99N/A (N/A)0 .. 20,0000%00:00 (00:00)
43 Miracle Fly Oct 26, 2015 $7.99N/A (N/A)20,000 .. 50,0000%00:00 (00:00)
44 Weird Hero Nov 18, 2016 $3.9979% (91%)0 .. 20,0000%00:00 (00:00)
45 Flashpoint Campaigns: Red Storm Player's Edition Oct 9, 2013 $49.9979% (91%)0 .. 20,0000%00:00 (00:00)
46 Blue Estate The Game Apr 8, 2015 $12.9979% (91%/59%)50,000 .. 100,0000.71%04:06 (01:22)
47 The Juicer Sep 6, 2012 $0.9979% (91%)20,000 .. 50,0000%00:00 (00:00)
48 Near Death Aug 2, 2016 $14.9979% (91%/70%)20,000 .. 50,0000%00:00 (00:00)
49 Below Kryll Sep 7, 2015 $4.9979% (91%)0 .. 20,0000%00:00 (00:00)
50 Momodora III Jul 1, 2014 $1.9979% (91%)50,000 .. 100,0002.15%00:26 (00:17)
51 Angry Video Game Nerd II: ASSimilation Mar 29, 2016 $9.9979% (91%)20,000 .. 50,0000%00:00 (00:00)
52 Super Cyborg Jul 8, 2015 $4.9979% (91%)20,000 .. 50,0000%00:00 (00:00)
53 Clash of Puppets Dec 16, 2014 $4.99N/A (N/A)0 .. 20,0000%00:00 (00:00)
54 Battle Academy 2: Eastern Front Sep 12, 2014 $39.9979% (91%/78%)0 .. 20,0000%00:00 (00:00)
55 Skulls of the Shogun Jul 29, 2013 $9.9979% (91%/72%)100,000 .. 200,0000.31%04:09 (01:23)
56 Kohan II: Kings of War Sep 21, 2004 $9.9979% (91%/81%)20,000 .. 50,0000%00:00 (00:00)
57 Mad Bullets Jun 10, 2016 $2.9979% (91%)0 .. 20,0000%00:00 (00:00)
58 Apocalypse: Party's Over May 30, 2016 $4.9979% (91%)0 .. 20,0000%00:00 (00:00)
59 Codename: Panzers, Phase Two Jul 21, 2005 $14.9979% (91%/80%)20,000 .. 50,0000%00:00 (00:00)
60 Warrior Kings: Battles Sep 30, 2003 $9.9979% (91%/64%)20,000 .. 50,0000%00:00 (00:00)
61 Dandy: Or a Brief Glimpse Into the Life of the Candy Alchemist Aug 4, 2015 $9.99N/A (N/A)0 .. 20,0000%00:00 (00:00)
62 Warhammer 40,000: Dawn of War – Winter Assault Jan 1, 2006 $12.9976% (90%)500,000 .. 1,000,0000.13%00:12 (00:04)
63 Superstatic Sep 15, 2015 $4.99N/A (N/A)0 .. 20,0001.69%00:01 (00:00)
64 Zombo Buster Rising Oct 2, 2016 $1.9976% (90%)0 .. 20,0000%00:00 (00:00)
65 RIVE: Wreck, Hack, Die, Retry! Sep 13, 2016 $14.9976% (90%)200,000 .. 500,0000.2%03:33 (01:11)
66 Valley Aug 24, 2016 $19.9976% (90%)200,000 .. 500,0002.02%01:25 (01:49)
67 Swords and Soldiers HD Dec 2, 2010 $9.9976% (90%)100,000 .. 200,0000.17%00:28 (00:36)
68 MoonBase Commander Aug 13, 2002 $5.9976% (90%/77%)20,000 .. 50,0000%00:00 (00:00)
69 Amaranthine Apr 6, 2016 $2.99N/A (N/A)0 .. 20,0000%00:00 (00:00)
70 Khet 2.0 Oct 1, 2014 $2.4976% (90%)50,000 .. 100,0000%00:00 (00:00)
71 Earth Defense Force: Insect Armageddon Dec 14, 2011 $9.9976% (90%/69%)50,000 .. 100,0000%00:00 (00:00)
72 Wild Guns Reloaded Jul 11, 2017 $14.9976% (90%)0 .. 20,0000%00:00 (00:00)
73 Ace of Seafood Apr 8, 2016 $11.9976% (90%)0 .. 20,0000%00:00 (00:00)
74 Death's Hangover Jan 20, 2017 $4.9976% (90%)20,000 .. 50,0001.09%00:10 (00:03)
75 Headlander Jul 25, 2016 $19.9976% (90%/74%)50,000 .. 100,0000%00:00 (00:00)
76 Planet of the Eyes Aug 24, 2015 $9.9976% (90%/66%)50,000 .. 100,0000%00:00 (00:00)
77 Sneaky Sneaky Nov 12, 2014 $4.9976% (90%/63%)0 .. 20,0000%00:00 (00:00)
78 Reverse Crawl Sep 24, 2015 $5.9973% (89%)20,000 .. 50,0000%00:00 (00:00)
79 Tcheco in the Castle of Lucio Jun 22, 2015 $0.9973% (89%)50,000 .. 100,0000.41%05:00 (01:40)
80 Armed with Wings: Rearmed Jun 1, 2017 $9.9973% (89%)20,000 .. 50,0000%00:00 (00:00)
81 Fort Meow Jun 25, 2015 $7.9973% (89%)0 .. 20,0000%00:00 (00:00)
82 Silent Storm Gold Edition Sep 9, 2004 $9.9973% (89%/83%)200,000 .. 500,0000%00:00 (00:00)
83 CastleStorm Jul 29, 2013 $9.9973% (89%/73%)100,000 .. 200,0000.87%03:07 (01:03)
84 Lethe - Episode One Aug 1, 2016 $14.9973% (89%)0 .. 20,0000%00:00 (00:00)
85 Anodyne Mar 22, 2013 $9.9970% (88%/75%)100,000 .. 200,0000%00:00 (00:00)
86 Battlepillars Gold Edition Apr 28, 2014 $4.9970% (88%)20,000 .. 50,0004.55%05:48 (04:26)
87 Greed Corp Dec 10, 2010 $9.9970% (88%/76%)200,000 .. 500,0000%00:00 (00:00)
88 The Fall May 30, 2014 $9.9970% (88%/76%)200,000 .. 500,0000%00:00 (00:00)
89 Atom Zombie Smasher Mar 14, 2011 $9.9970% (88%/75%)200,000 .. 500,0000.57%00:36 (00:15)
90 TRON 2.0 Aug 22, 2003 $9.9970% (88%/84%)50,000 .. 100,0002.04%00:02 (00:00)
91 Earn to Die 2 May 5, 2016 $4.9970% (88%)20,000 .. 50,0005.88%00:07 (00:02)
92 Kohan: Ahriman's Gift Nov 6, 2001 $9.99N/A (N/A/79%)0 .. 20,0000%00:00 (00:00)
93 Explosionade Sep 23, 2015 $3.99N/A (N/A)0 .. 20,0000%00:00 (00:00)
94 Mr. Shifty Apr 13, 2017 $14.9970% (88%)50,000 .. 100,0001.11%02:26 (02:15)
95 Viking Squad Oct 4, 2016 $14.9970% (88%)0 .. 20,0000%00:00 (00:00)
96 Sang-Froid - Tales of Werewolves Apr 5, 2013 Free67% (87%/79%)200,000 .. 500,0000%00:00 (00:00)
97 The Haunted: Hells Reach Oct 24, 2011 $8.9967% (87%/51%)50,000 .. 100,0000%00:00 (00:00)
98 Shadow Blade: Reload Aug 10, 2015 $5.2467% (87%/70%)20,000 .. 50,0000%00:00 (00:00)
99 The Tiny Tale 2 Jan 30, 2015 $6.99N/A (N/A)0 .. 20,0000%00:00 (00:00)
100 Avoid - Sensory Overload Apr 8, 2014 $4.9967% (87%)20,000 .. 50,0000%00:00 (00:00)
101 Spider: Rite of the Shrouded Moon Aug 6, 2015 $9.99N/A (N/A)20,000 .. 50,0000%00:00 (00:00)
102 Spooky Cats Jun 4, 2015 $2.9967% (87%)20,000 .. 50,0000%00:00 (00:00)
103 Spectromancer Oct 15, 2008 $9.9967% (87%)20,000 .. 50,0000%00:00 (00:00)
104 Blacksea Odyssey Jun 1, 2016 $9.9967% (87%/74%)20,000 .. 50,0002.44%01:04 (00:21)
105 Syrian Warfare Feb 21, 2017 $14.9967% (87%)50,000 .. 100,0002.44%00:48 (00:16)
106 Rush for Berlin Gold Oct 29, 2009 $4.9967% (87%/76%)20,000 .. 50,0000%00:00 (00:00)
107 Time Rifters Oct 21, 2014 $9.9967% (87%)0 .. 20,0007.41%02:33 (01:42)
108 Arcane Sorcery Sep 15, 2015 $4.99N/A (N/A)0 .. 20,0000%00:00 (00:00)
109 Executive Assault Jul 17, 2015 $12.9964% (86%)20,000 .. 50,0002%00:01 (00:00)
110 Supreme Commander Feb 20, 2007 $12.9964% (86%/86%)500,000 .. 1,000,0000.13%03:25 (01:08)
111 Ballistic Tanks Sep 20, 2016 $4.9964% (86%)0 .. 20,0000%00:00 (00:00)
112 N2O: Nitrous Oxide Jun 29, 2015 $4.99N/A (N/A)0 .. 20,0000%00:00 (00:00)
113 The Way May 20, 2016 $2.9964% (86%/67%)50,000 .. 100,0000%00:00 (00:00)
114 Civilization IV: Warlords Jul 24, 2006 $4.9964% (86%/84%)1,000,000 .. 2,000,0000%00:00 (00:00)
115 NOBUNAGA'S AMBITION: Souzou (Traditional Chinese version) Aug 2014 $24.9964% (86%)20,000 .. 50,0000%00:00 (00:00)
116 Super Chibi Knight Jun 24, 2015 $4.9964% (86%)20,000 .. 50,0002%01:55 (00:38)
117 Command: Northern Inferno Oct 22, 2015 $19.99N/A (N/A)0 .. 20,0000%00:00 (00:00)
118 Meltdown Jun 5, 2014 $6.9964% (86%)50,000 .. 100,0000.96%00:03 (00:01)
119 Star Ruler Sep 20, 2010 $9.9964% (86%)100,000 .. 200,0000%00:00 (00:00)
120 Steel Rain Dec 3, 2015 $9.99N/A (N/A)0 .. 20,0002.22%00:01 (00:00)
121 Slash or Die Jun 3, 2016 $2.9964% (86%)20,000 .. 50,0000%00:00 (00:00)
122 Rooks Keep Dec 5, 2014 $7.99N/A (N/A)20,000 .. 50,0001.22%03:30 (01:10)
123 Age of Wonders Shadow Magic Oct 2010 $2.4962% (85%/82%)100,000 .. 200,0000%00:00 (00:00)
124 VelocityUltra Dec 12, 2013 $9.9962% (85%)50,000 .. 100,0000.63%00:02 (00:00)
125 ENSLAVED: Odyssey to the West Premium Edition Oct 24, 2013 $19.9962% (85%/70%)200,000 .. 500,0000.18%08:34 (02:51)
126 Last Knight: Rogue Rider Edition Oct 3, 2014 $1.5962% (85%)20,000 .. 50,0000%00:00 (00:00)
127 Western 1849 Reloaded Feb 10, 2017 $4.99N/A (N/A)0 .. 20,0001.89%00:06 (00:02)
128 Magnifico Dec 2, 2014 $4.99N/A (N/A)50,000 .. 100,0000%00:00 (00:00)
129 Delta Force 2 Oct 31, 1999 $4.9962% (85%)20,000 .. 50,0003.23%00:06 (00:02)
130 Dustoff Heli Rescue Mar 6, 2015 $3.9962% (85%)20,000 .. 50,0000%00:00 (00:00)
131 Ghost Master Aug 23, 2003 $4.9962% (85%/81%)100,000 .. 200,0000%00:00 (00:00)
132 Interloper May 21, 2015 Free62% (85%/77%)50,000 .. 100,0000.34%00:49 (00:16)
133 ShootMania Storm Apr 10, 2013 $19.9962% (85%/76%)50,000 .. 100,0000%00:00 (00:00)
134 Gurgamoth Feb 16, 2016 $4.99N/A (N/A)50,000 .. 100,0000.61%02:31 (00:50)
135 Neon Shadow Aug 25, 2016 $4.99N/A (N/A)0 .. 20,0000%00:00 (00:00)
136 Legend (1994) Apr 1, 1994 $4.99N/A (N/A)0 .. 20,0002.86%09:53 (03:17)
137 Super Furball May 13, 2014 $3.99N/A (N/A)0 .. 20,0000%00:00 (00:00)
138 Sudden Strike 2 Gold Aug 30, 2002 $5.9959% (84%)20,000 .. 50,0000%00:00 (00:00)
139 CRYPTARK Jun 20, 2017 $14.9959% (84%/80%)50,000 .. 100,0000%00:00 (00:00)
140 Fat Chicken Dec 4, 2014 $9.99N/A (N/A)0 .. 20,0000%00:00 (00:00)
141 Battle Group 2 Jun 13, 2014 $7.9959% (84%)50,000 .. 100,0000%00:00 (00:00)
142 Demons with Shotguns Apr 25, 2016 $9.99N/A (N/A)0 .. 20,0000%00:00 (00:00)
143 Foresight Nov 28, 2014 $4.99N/A (N/A)0 .. 20,0000%00:00 (00:00)
144 Eador: Genesis Aug 7, 2009 $5.9956% (83%)50,000 .. 100,0000%00:00 (00:00)
145 NOBUNAGA'S AMBITION: Sphere of Influence Sep 1, 2015 $59.9956% (83%/70%)20,000 .. 50,0000%00:00 (00:00)
146 Advanced Tactics Gold Apr 12, 2011 $29.9956% (83%)0 .. 20,0000%00:00 (00:00)
147 Ace of Protectors Jun 27, 2016 $1.99N/A (N/A)20,000 .. 50,0001.32%03:33 (01:11)
148 Weapon of Choice Sep 23, 2015 $4.99N/A (N/A)0 .. 20,0000%00:00 (00:00)
149 Orbital Gear Aug 7, 2014 $9.9956% (83%/59%)200,000 .. 500,0000.19%00:01 (00:00)
150 Crush Your Enemies Jul 13, 2016 $9.9956% (83%/63%)20,000 .. 50,0001.72%92:51 (30:57)
151 TY the Tasmanian Tiger 4 Sep 17, 2015 $5.9956% (83%)20,000 .. 50,0000%00:00 (00:00)
152 GIBZ Apr 7, 2017 $3.1956% (83%)0 .. 20,0000%00:00 (00:00)
153 Yomi May 8, 2015 $14.9954% (82%)0 .. 20,0000%00:00 (00:00)
154 Rack N Ruin Sep 1, 2015 $9.99N/A (N/A)0 .. 20,0002.38%03:46 (01:15)
155 Bulletstorm: Full Clip Edition Apr 7, 2017 $39.9954% (82%/76%)50,000 .. 100,0002.46%00:19 (00:19)
156 PixelJunk Shooter Ultimate Oct 21, 2015 $9.9954% (82%)0 .. 20,0000%00:00 (00:00)
157 Shadow Ops: Red Mercury Sep 17, 2004 $6.9954% (82%/61%)20,000 .. 50,0000%00:00 (00:00)
158 Square Brawl Oct 22, 2015 $4.9954% (82%)0 .. 20,0004.55%04:08 (01:22)
159 htoL#NiQ: The Firefly Diary / htoL#NiQ-ホタルノニッキ- May 18, 2016 $9.9954% (82%)20,000 .. 50,0000%00:00 (00:00)
160 Galaxy Admirals Jan 17, 2017 $1.9954% (82%)50,000 .. 100,0000.45%03:56 (01:18)
161 Supreme Ruler 2020 Gold Jun 17, 2008 $9.9952% (81%/65%)50,000 .. 100,0000%00:00 (00:00)
162 Toadled Sep 22, 2016 $0.9952% (81%)50,000 .. 100,0000%00:00 (00:00)
163 Fantasy Wars Aug 6, 2010 $4.9952% (81%/67%)50,000 .. 100,0000%00:00 (00:00)
164 Blade Arcus from Shining: Battle Arena Jul 28, 2016 $29.9952% (81%)0 .. 20,0000%00:00 (00:00)
165 Gun Metal Sep 23, 2003 $1.0152% (81%)200,000 .. 500,0000%00:00 (00:00)
166 ROD: Revolt Of Defense Aug 12, 2016 $0.9952% (81%)20,000 .. 50,0000%00:00 (00:00)
167 Tiki Man Jun 4, 2015 $0.9952% (81%)20,000 .. 50,0000%00:00 (00:00)
168 Conflict Desert Storm Sep 13, 2002 $6.9952% (81%/56%)50,000 .. 100,0000%00:00 (00:00)
169 In Verbis Virtus Apr 3, 2015 $19.9952% (81%)50,000 .. 100,0001.06%00:42 (00:14)
170 Concealed Intent Aug 2, 2016 $14.99N/A (N/A)0 .. 20,0000%00:00 (00:00)
171 Hail to the King: Deathbat Oct 30, 2014 $5.9950% (80%)0 .. 20,0000%00:00 (00:00)
172 7,62 High Calibre Aug 24, 2007 $4.9950% (80%)50,000 .. 100,0000%00:00 (00:00)
173 Enemy Mind Jun 6, 2014 $9.9950% (80%)200,000 .. 500,0000.42%02:43 (01:08)
174 Monday Night Combat Jan 24, 2011 $4.9950% (80%/82%)200,000 .. 500,0000%00:00 (00:00)
175 Fleet Command May 15, 1999 $9.9950% (80%)50,000 .. 100,0000%00:00 (00:00)
176 Trigger Runners Mar 3, 2016 $1.99N/A (N/A)0 .. 20,0000%00:00 (00:00)
177 rymdkapsel Jan 30, 2014 $7.9950% (80%/77%)0 .. 20,0000%00:00 (00:00)
178 Legends of Callasia Jun 10, 2016 $14.9950% (80%)50,000 .. 100,0000%00:00 (00:00)
179 Zeno Clash 2 Apr 30, 2013 $14.9950% (80%)200,000 .. 500,0000.2%00:04 (00:01)
180 Disciples Sacred Lands Gold Oct 4, 1999 $7.9950% (80%)50,000 .. 100,0000%00:00 (00:00)
181 Junk Jack Nov 30, 2016 $14.9950% (80%)0 .. 20,0000%00:00 (00:00)
182 She Wants Me Dead May 13, 2016 $7.99N/A (N/A)0 .. 20,0000%00:00 (00:00)
183 Run Rabbit Run Mar 31, 2016 $3.99N/A (N/A)0 .. 20,0002.56%02:30 (00:50)
184 Star Wolves 3: Civil War Mar 2, 2010 $4.9950% (80%)100,000 .. 200,0000%00:00 (00:00)
185 Bloodsports.TV Mar 30, 2015 $9.9950% (80%/69%)50,000 .. 100,0001.72%02:39 (02:37)
186 Graviteam Tactics: Operation Star Mar 22, 2012 $29.9950% (80%)20,000 .. 50,0004.55%00:12 (00:04)
187 Romance of the Three Kingdoms Ⅴ with Power Up Kit / 三國志Ⅴ with パワーアップキット Apr 18, 2017 $19.99N/A (N/A)0 .. 20,0000%00:00 (00:00)
188 Locoland Nov 22, 2003 $4.9950% (80%)0 .. 20,0000%00:00 (00:00)
189 Child Of Ault Jan 24, 2017 $9.99N/A (N/A)0 .. 20,0000%00:00 (00:00)
190 Perimeter May 21, 2004 $3.9950% (80%/77%)20,000 .. 50,0000%00:00 (00:00)
191 Envoy Mar 17, 2016 $4.99N/A (N/A)50,000 .. 100,0000%00:00 (00:00)
192 Defense Zone Jul 14, 2014 $2.99N/A (N/A)0 .. 20,0000%00:00 (00:00)
193 Conquest of Elysium 3 Oct 24, 2012 $9.9950% (80%)20,000 .. 50,0000%00:00 (00:00)
194 TRON RUN/r Feb 16, 2016 $19.9947% (79%)0 .. 20,0000%00:00 (00:00)
195 Gatling Gears Aug 30, 2011 $9.9947% (79%)20,000 .. 50,0000%00:00 (00:00)
196 Defense Zone 3 Ultra HD Dec 14, 2016 $2.9947% (79%)20,000 .. 50,0000%00:00 (00:00)
197 Pharaonic Apr 28, 2016 $14.9947% (79%)0 .. 20,0000%00:00 (00:00)
198 Bet On Soldier Sep 26, 2005 $7.9947% (79%)50,000 .. 100,0000.97%00:04 (00:01)
199 Ironcast Mar 26, 2015 $14.9947% (79%/75%)20,000 .. 50,0000%00:00 (00:00)
200 Caster Mar 19, 2009 $1.9947% (79%)200,000 .. 500,0000%00:00 (00:00)
201 Advent Rising Aug 9, 2005 $9.9947% (79%/70%)50,000 .. 100,0000%00:00 (00:00)
202 Vietnam ‘65 Mar 5, 2015 $9.9947% (79%/81%)20,000 .. 50,0000%00:00 (00:00)
203 Anomaly 2 May 15, 2013 $14.9947% (79%/77%)200,000 .. 500,0000.58%00:57 (00:37)
204 Protoshift Jan 15, 2016 $0.99N/A (N/A)0 .. 20,0001.85%04:03 (01:21)
205 Fate of the World Feb 28, 2011 $9.9947% (79%/70%)50,000 .. 100,0000%00:00 (00:00)
206 Interplanetary May 12, 2015 N/A47% (79%)100,000 .. 200,0001.26%02:51 (04:34)
207 The Legend of Dark Witch Dec 1, 2015 $4.9947% (79%)20,000 .. 50,0000%00:00 (00:00)
208 Umihara Kawase Shun: Steam Edition Nov 24, 2015 $11.99N/A (N/A)0 .. 20,0000%00:00 (00:00)
209 David. Mar 14, 2014 $1.9947% (79%)50,000 .. 100,0000%00:00 (00:00)
210 Fortified Feb 3, 2016 $14.9947% (79%)500,000 .. 1,000,0000.53%04:10 (02:55)
211 Age of Gladiators Feb 25, 2016 $9.9947% (79%)20,000 .. 50,0001.64%07:01 (02:20)
212 Making History: The Calm & the Storm Mar 13, 2007 $4.9947% (79%/70%)50,000 .. 100,0000%00:00 (00:00)
213 TASTEE: Lethal Tactics May 10, 2016 $14.9947% (79%)20,000 .. 50,0000%00:00 (00:00)
214 Demolition Inc. Sep 19, 2011 $5.9947% (79%)50,000 .. 100,0000%00:00 (00:00)
215 Nuclear Dawn Sep 26, 2011 $9.9947% (79%/71%)200,000 .. 500,0000.21%00:26 (00:08)
216 PAC-MAN and the Ghostly Adventures Oct 29, 2013 $19.9945% (78%)0 .. 20,0000%00:00 (00:00)
217 Tank Destroyer Mar 9, 2017 $2.9945% (78%)20,000 .. 50,0000%00:00 (00:00)
218 Mold on Pizza Sep 25, 2015 $5.9945% (78%)0 .. 20,0003.57%00:01 (00:00)
219 Starscape Mar 27, 2003 $7.9945% (78%)0 .. 20,0000%00:00 (00:00)
220 Klang Sep 22, 2016 $14.9945% (78%/71%)0 .. 20,0000%00:00 (00:00)
221 After The End: The Harvest Jun 2, 2017 $4.99N/A (N/A)20,000 .. 50,0000%00:00 (00:00)
222 Deadly 30 Jan 8, 2014 $4.9945% (78%)100,000 .. 200,0000.66%03:05 (02:03)
223 Cultures - 8th Wonder of the World Mar 26, 2015 $4.9945% (78%)50,000 .. 100,0000.65%04:32 (01:30)
224 Strike Suit Zero: Director's Cut Apr 8, 2014 $19.9945% (78%)20,000 .. 50,0000%00:00 (00:00)
225 Dead Rising 2: Off the Record Oct 11, 2011 $19.9945% (78%/66%)200,000 .. 500,0000.34%00:16 (00:10)
226 Zombie Party Jun 10, 2016 $9.9945% (78%)100,000 .. 200,0000%00:00 (00:00)
227 Zombie Killtime Aug 4, 2015 $1.99N/A (N/A)0 .. 20,0000%00:00 (00:00)
228 Velocity 2X Aug 19, 2015 $19.99N/A (N/A)50,000 .. 100,0000%00:00 (00:00)
229 Aeon Command Jul 3, 2014 $2.9945% (78%)20,000 .. 50,0000%00:00 (00:00)
230 Age of Wonders Oct 2010 $1.4945% (78%)100,000 .. 200,0000%00:00 (00:00)
231 Sky Gamblers: Storm Raiders Jan 7, 2015 $9.9943% (77%)0 .. 20,0000%00:00 (00:00)
232 McDROID Sep 5, 2014 $9.9943% (77%)0 .. 20,0000%00:00 (00:00)
233 Starchaser: Priestess of the Night Sky Jul 24, 2015 $9.99N/A (N/A)0 .. 20,00014.29%00:21 (00:07)
234 A Blind Legend Apr 7, 2016 $6.9943% (77%)0 .. 20,0000%00:00 (00:00)
235 Anomaly Warzone Earth Mobile Campaign Nov 6, 2013 $4.9943% (77%)100,000 .. 200,0000.36%00:49 (00:16)
236 Warhammer 40,000: Armageddon Nov 26, 2014 $39.9943% (77%/68%)20,000 .. 50,0004.17%11:09 (03:43)
237 The Political Machine 2016 Feb 4, 2016 $9.9943% (77%)50,000 .. 100,0001.37%00:17 (00:09)
238 Dominions 3: The Awakening Sep 10, 2013 $19.9943% (77%/82%)0 .. 20,0000%00:00 (00:00)
239 Ninjahtic Jul 6, 2015 $1.9943% (77%)0 .. 20,0000%00:00 (00:00)
240 Making History II: The War of the World Jun 22, 2010 $14.9943% (77%/38%)20,000 .. 50,0000%00:00 (00:00)
241 Curse of the Crescent Isle DX Aug 21, 2015 $0.9943% (77%)0 .. 20,0000%00:00 (00:00)
242 Warlords Battlecry III May 17, 2004 $9.9943% (77%/73%)0 .. 20,0000%00:00 (00:00)
243 Blue Effect VR Feb 8, 2017 $14.9943% (77%)0 .. 20,0000%00:00 (00:00)
244 Heroes of Might & Magic V: Hammers of Fate Nov 14, 2006 $9.9943% (77%/66%)200,000 .. 500,0000%00:00 (00:00)
245 King of Dragon Pass Jul 28, 2015 $11.9943% (77%)20,000 .. 50,0000%00:00 (00:00)
246 Vector Strain Dec 9, 2015 $4.99N/A (N/A)20,000 .. 50,0001.75%04:37 (01:32)
247 Extravaganza Rising Jul 21, 2016 N/AN/A (N/A)20,000 .. 50,0000%00:00 (00:00)
248 Rocket Knight May 11, 2010 $14.9941% (76%/63%)0 .. 20,0000%00:00 (00:00)
249 A.R.E.S. Extinction Agenda EX Oct 3, 2014 $9.9941% (76%)0 .. 20,0002.38%00:06 (00:02)
250 Dangerous Waters Feb 7, 2006 $14.9941% (76%/82%)50,000 .. 100,0000%00:00 (00:00)
251 Star Realms Mar 8, 2016 Free41% (76%)100,000 .. 200,0000%00:00 (00:00)
252 Painkiller Hell & Damnation Oct 31, 2012 $19.9941% (76%/64%)500,000 .. 1,000,0000.36%04:51 (03:13)
253 Deadlings: Rotten Edition Nov 11, 2014 $3.9941% (76%)50,000 .. 100,0000%00:00 (00:00)
254 Battlezone Gold Edition May 11, 2017 $34.9941% (76%)0 .. 20,0000%00:00 (00:00)
255 Olympia Rising Jul 23, 2015 $4.9941% (76%)0 .. 20,0000%00:00 (00:00)
256 BloodRayne Sep 9, 2003 $9.9941% (76%/65%)50,000 .. 100,0000%00:00 (00:00)
257 Corgi Warlock Dec 3, 2015 $1.9941% (76%)20,000 .. 50,0000%00:00 (00:00)
258 Mysterium: A Psychic Clue Game Jan 12, 2017 $3.9841% (76%)50,000 .. 100,0000.35%01:01 (00:20)
259 Cashtronauts Sep 1, 2016 $2.99N/A (N/A)0 .. 20,0000%00:00 (00:00)
260 Jim Power -The Lost Dimension Dec 10, 1993 $4.99N/A (N/A)0 .. 20,0000%00:00 (00:00)
261 Livelock Aug 30, 2016 $9.9939% (75%/73%)20,000 .. 50,0000%00:00 (00:00)
262 Bubsy Two-Fur Jan 1, 1993 $4.9939% (75%)0 .. 20,0000%00:00 (00:00)
263 Platformines Mar 28, 2014 $9.9939% (75%/67%)100,000 .. 200,0000%00:00 (00:00)
264 Star Hammer: The Vanguard Prophecy Jun 4, 2015 $19.9939% (75%/69%)0 .. 20,00016.67%00:47 (00:31)
265 Smithy Jun 3, 2016 $3.99N/A (N/A)50,000 .. 100,0000.47%04:03 (01:21)
266 WARSHIFT Oct 12, 2016 $6.4939% (75%)20,000 .. 50,0000%00:00 (00:00)
267 Heaven Forest NIGHTS Mar 14, 2017 $0.99N/A (N/A)100,000 .. 200,0000.61%04:02 (02:13)
268 Perimeter: Emperor's Testament Aug 29, 2006 $3.99N/A (N/A/72%)20,000 .. 50,0001.75%00:02 (00:00)
269 Rocketbirds 2 Evolution Jan 26, 2017 $9.9939% (75%)20,000 .. 50,0000%00:00 (00:00)
270 CivCity: Rome Jul 24, 2006 $9.9939% (75%/67%)50,000 .. 100,0000%00:00 (00:00)
271 Civil War II Sep 17, 2013 $39.9939% (75%)0 .. 20,0000%00:00 (00:00)
272 Monster Monpiece Mar 14, 2017 $19.9939% (75%)0 .. 20,0000%00:00 (00:00)
273 Fist Puncher Jun 21, 2013 $9.9939% (75%/73%)20,000 .. 50,0002.5%04:40 (03:06)
274 Onechanbara Z2: Chaos Jun 2, 2016 $39.9939% (75%)0 .. 20,0000%00:00 (00:00)
275 Victory At Sea Aug 8, 2014 $24.9939% (75%)20,000 .. 50,0000%00:00 (00:00)
276 Chaser Aug 22, 2003 $4.9939% (75%/66%)50,000 .. 100,0000.78%00:09 (00:03)
277 Hunting Unlimited 2008 Sep 1, 2007 $9.99N/A (N/A)20,000 .. 50,0000%00:00 (00:00)
278 Z Jul 4, 2014 $6.9939% (75%)100,000 .. 200,0000.26%00:01 (00:00)
279 BossConstructor Oct 24, 2016 $14.9939% (75%)0 .. 20,0000%00:00 (00:00)
280 Battle Mages: Sign of Darkness Apr 13, 2006 $4.9939% (75%)20,000 .. 50,0004.76%04:42 (01:34)
281 NOBUNAGA’S AMBITION: Kakushin with Power Up Kit / 信長の野望・革新 with パワーアップキット Jun 25, 2015 $54.9939% (75%)20,000 .. 50,0000%00:00 (00:00)
282 Distant Worlds: Universe May 23, 2014 $59.9937% (74%/81%)50,000 .. 100,0000%00:00 (00:00)
283 Ubersoldier II Jul 22, 2008 $9.9937% (74%/62%)100,000 .. 200,0000%00:00 (00:00)
284 Spirits of Xanadu Mar 26, 2015 $4.9937% (74%)20,000 .. 50,0001.54%00:51 (00:17)
285 Albino Lullaby: Episode 1 Sep 15, 2015 $9.9937% (74%)20,000 .. 50,0000%00:00 (00:00)
286 Smell Of Death Jul 4, 2016 $9.99N/A (N/A)0 .. 20,0000%00:00 (00:00)
287 Master Reboot Oct 29, 2013 $14.9937% (74%/59%)50,000 .. 100,0000%00:00 (00:00)
288 Commander: The Great War Nov 12, 2012 $29.9937% (74%)0 .. 20,0000%00:00 (00:00)
289 Riddled Corpses Jun 2, 2015 $7.9937% (74%)20,000 .. 50,0001.35%00:09 (00:03)
290 Viktor Jun 13, 2014 $7.9937% (74%)20,000 .. 50,0000%00:00 (00:00)
291 Battle Time Sep 29, 2016 $0.9937% (74%)50,000 .. 100,0001.9%03:06 (03:06)
292 TableTop Soccer Apr 22, 2016 $0.9937% (74%)0 .. 20,0000%00:00 (00:00)
293 Gold Rush! Anniversary Nov 7, 2014 $5.99N/A (N/A)100,000 .. 200,0000%00:00 (00:00)
294 Sid Meier’s Ace Patrol Aug 27, 2013 $4.9936% (73%)500,000 .. 1,000,0000.2%00:01 (00:00)
295 Hot Tin Roof: The Cat That Wore A Fedora Feb 20, 2015 $14.9936% (73%/66%)100,000 .. 200,0000%00:00 (00:00)
296 Rex Rocket Aug 5, 2014 $4.9936% (73%)20,000 .. 50,0000%00:00 (00:00)
297 AirMech Command Mar 8, 2017 $19.9936% (73%)0 .. 20,0000%00:00 (00:00)
298 The Aquatic Adventure of the Last Human Jan 19, 2016 $9.9936% (73%/76%)0 .. 20,0000%00:00 (00:00)
299 Vampire of the Sands Jul 17, 2015 $4.9936% (73%)20,000 .. 50,0000%00:00 (00:00)
300 FIVE: Champions of Canaan Sep 27, 2016 $3.99N/A (N/A)0 .. 20,0003.57%07:19 (02:26)
301 Battle Fleet 2 Nov 20, 2014 $14.9936% (73%)20,000 .. 50,0000%00:00 (00:00)
302 Making History: The Great War Jan 29, 2015 $29.9936% (73%)20,000 .. 50,0000%00:00 (00:00)
303 Death by Game Show Jan 22, 2016 $9.99N/A (N/A)20,000 .. 50,0000%00:00 (00:00)
304 Cuban Missile Crisis May 6, 2005 $4.9936% (73%)20,000 .. 50,0000%00:00 (00:00)
305 Supreme Ruler Ultimate Oct 17, 2014 $19.9936% (73%)20,000 .. 50,00014.29%00:20 (00:18)
306 FEIST Jul 23, 2015 $9.9936% (73%/65%)20,000 .. 50,0000%00:00 (00:00)
307 Divinity: Dragon Commander Aug 6, 2013 $39.9936% (73%)200,000 .. 500,0000%00:00 (00:00)
308 Rise & Shine Jan 13, 2017 $14.9934% (72%)20,000 .. 50,0000%00:00 (00:00)
309 Auro: A Monster-Bumping Adventure Apr 13, 2016 $6.99N/A (N/A)0 .. 20,0000%00:00 (00:00)
310 Lost Planet: Extreme Condition Jun 26, 2007 $14.9934% (72%/66%)200,000 .. 500,0000%00:00 (00:00)
311 VRZ: Torment May 18, 2017 $9.9934% (72%)0 .. 20,0000%00:00 (00:00)
312 Pongo May 14, 2015 $0.9934% (72%)50,000 .. 100,0000.76%04:36 (01:32)
313 Codex of Victory Mar 16, 2017 $14.9934% (72%)0 .. 20,0000%00:00 (00:00)
314 Fatal Fight Jun 10, 2016 $2.99N/A (N/A)0 .. 20,0000%00:00 (00:00)
315 Airship Dragoon Aug 26, 2014 $19.99N/A (N/A)0 .. 20,0000%00:00 (00:00)
316 LEGO Indiana Jones 2: The Adventure Continues Feb 18, 2010 $19.9934% (72%/66%)50,000 .. 100,0000%00:00 (00:00)
317 Pick a Hero Jun 9, 2016 $0.99N/A (N/A)0 .. 20,0000%00:00 (00:00)
318 Wildlife Park 2 - Crazy Zoo Mar 30, 2007 $3.99N/A (N/A)0 .. 20,0000%00:00 (00:00)
319 Retrovirus Jan 31, 2013 $9.9934% (72%/70%)20,000 .. 50,0000%00:00 (00:00)
320 Civil War: Battle of Petersburg Feb 8, 2017 $0.6234% (72%)0 .. 20,0000%00:00 (00:00)
321 Cast of the Seven Godsends - Redux Jul 20, 2015 $9.9934% (72%)20,000 .. 50,0000%00:00 (00:00)
322 King Arthur - The Role-playing Wargame Nov 24, 2009 $9.9934% (72%)200,000 .. 500,0000%00:00 (00:00)
323 Phoning Home Feb 7, 2017 $19.9934% (72%/61%)20,000 .. 50,0000%00:00 (00:00)
324 Disney Planes Aug 6, 2013 $19.99N/A (N/A)0 .. 20,0000%00:00 (00:00)
325 Deadnaut Nov 27, 2014 $9.9934% (72%)0 .. 20,0000%00:00 (00:00)
326 Wyv and Keep: The Temple of the Lost Idol Aug 8, 2014 $14.9934% (72%)20,000 .. 50,0000%00:00 (00:00)
327 Heroes of Arca Feb 16, 2017 Free34% (72%)0 .. 20,0000%00:00 (00:00)
328 Elliot Quest Nov 10, 2014 $9.9934% (72%)20,000 .. 50,0000%00:00 (00:00)
329 Pike and Shot : Campaigns Aug 13, 2015 $39.9934% (72%)0 .. 20,0000%00:00 (00:00)
330 Elven Legacy Apr 7, 2009 $4.9934% (72%/71%)50,000 .. 100,0000%00:00 (00:00)
331 rooMaze Mar 3, 2017 $1.9932% (71%)100,000 .. 200,0000%00:00 (00:00)
332 There Came an Echo Feb 24, 2015 $14.9932% (71%/58%)20,000 .. 50,0000%00:00 (00:00)
333 Warp Mar 21, 2012 $9.9932% (71%)20,000 .. 50,0000%00:00 (00:00)
334 REDCON Apr 22, 2016 $5.9932% (71%)0 .. 20,0000%00:00 (00:00)
335 Cross of the Dutchman Sep 10, 2015 $8.9932% (71%/59%)20,000 .. 50,0000%00:00 (00:00)
336 The Last Federation Apr 18, 2014 $3.9932% (71%/72%)50,000 .. 100,0000%00:00 (00:00)
337 Tom Clancy's EndWar Feb 25, 2009 $9.9932% (71%/68%)50,000 .. 100,0000%00:00 (00:00)
338 Zoo Empire Aug 1, 2004 $6.99N/A (N/A/59%)0 .. 20,0000%00:00 (00:00)
339 Banzai Escape Mar 16, 2016 $5.9932% (71%)20,000 .. 50,0000%00:00 (00:00)
340 A.R.E.S.: Extinction Agenda Jan 20, 2011 $4.9932% (71%/68%)100,000 .. 200,0000%00:00 (00:00)
341 BitMaster Oct 12, 2016 $2.9931% (70%)200,000 .. 500,0000%00:00 (00:00)
342 Strategy & Tactics: Wargame Collection Apr 22, 2016 $9.9931% (70%)20,000 .. 50,0002.13%01:04 (00:42)
343 Brigade E5: New Jagged Union Oct 17, 2006 $3.9931% (70%/41%)0 .. 20,0000%00:00 (00:00)
344 Revolution Under Siege Gold Jul 2, 2015 $24.9931% (70%)0 .. 20,0000%00:00 (00:00)
345 Collapse Sep 25, 2008 $19.9929% (69%)50,000 .. 100,0000%00:00 (00:00)
346 Sol 0: Mars Colonization Jan 15, 2016 $3.9929% (69%)20,000 .. 50,0000%00:00 (00:00)
347 Panzer Tactics HD May 22, 2014 $9.9929% (69%/69%)20,000 .. 50,0000%00:00 (00:00)
348 The Nightmare Cooperative Jul 16, 2014 $4.9929% (69%)50,000 .. 100,0000%00:00 (00:00)
349 Jagged Alliance 2 - Wildfire Mar 8, 2004 $6.9929% (69%)200,000 .. 500,0001.01%05:40 (06:26)
350 Space Colony: Steam Edition Apr 30, 2015 $14.9929% (69%/74%)20,000 .. 50,0000%00:00 (00:00)
351 Incandescent Jun 30, 2015 $0.9929% (69%)20,000 .. 50,0000%00:00 (00:00)
352 The Superfluous May 19, 2017 $4.99N/A (N/A)0 .. 20,0000%00:00 (00:00)
353 Little King's Story Aug 5, 2016 $19.9929% (69%/62%)0 .. 20,0000%00:00 (00:00)
354 Lux Delux May 1, 2015 $4.9929% (69%)20,000 .. 50,0000%00:00 (00:00)
355 8-Bit Commando Jul 27, 2011 $2.9929% (69%)50,000 .. 100,0000%00:00 (00:00)
356 Othello Aug 5, 2016 $2.4927% (68%)0 .. 20,0000%00:00 (00:00)
357 ManaCollect Apr 17, 2015 $1.74N/A (N/A)0 .. 20,0000%00:00 (00:00)
358 Bedlam Oct 13, 2015 $12.9927% (68%/54%)100,000 .. 200,0000%00:00 (00:00)
359 Warrior Kings Apr 13, 2002 $9.9927% (68%/73%)20,000 .. 50,0000%00:00 (00:00)
360 The Hive Aug 25, 2016 $9.9927% (68%)20,000 .. 50,0000%00:00 (00:00)
361 Scourge of War: Waterloo Nov 19, 2015 $49.9927% (68%)0 .. 20,0000%00:00 (00:00)
362 Royal Defense Nov 6, 2014 $4.9927% (68%)50,000 .. 100,0000%00:00 (00:00)
363 YAIBA: NINJA GAIDEN Z Mar 21, 2014 $29.9927% (68%/49%)20,000 .. 50,0000%00:00 (00:00)
364 The Living Dungeon Nov 2, 2015 $9.99N/A (N/A)0 .. 20,0000%00:00 (00:00)
365 FIVE: Guardians of David Nov 24, 2015 $9.9927% (68%/66%)20,000 .. 50,0000%00:00 (00:00)
366 Pigmentone Jul 8, 2016 $1.99N/A (N/A)0 .. 20,0000%00:00 (00:00)
367 Guns n Zombies Oct 30, 2014 $7.9927% (68%)100,000 .. 200,0000.99%02:02 (01:20)
368 Space Food Truck Mar 25, 2016 $9.9926% (67%)20,000 .. 50,0006.25%14:36 (04:52)
369 Toy Odyssey: The Lost and Found Sep 20, 2016 $14.9926% (67%/66%)20,000 .. 50,0000.51%01:57 (00:39)
370 Kill The Plumber Dec 31, 2015 $4.9926% (67%)0 .. 20,0000%00:00 (00:00)
371 Stonerid Dec 18, 2013 $4.9926% (67%)20,000 .. 50,0000.81%00:02 (00:00)
372 Chainsaw Warrior Oct 7, 2013 $4.9926% (67%)100,000 .. 200,0000%00:00 (00:00)
373 Survivor Squad: Gauntlets Nov 16, 2015 $4.9926% (67%)20,000 .. 50,0001.85%06:09 (02:03)
374 March of the Eagles Feb 18, 2013 $19.9926% (67%/71%)50,000 .. 100,0000%00:00 (00:00)
375 Toren May 11, 2015 $9.9926% (67%/57%)50,000 .. 100,0001.26%03:29 (02:19)
376 Warhammer 40,000: Armageddon - Da Orks Aug 18, 2016 $19.99N/A (N/A)0 .. 20,0000%00:00 (00:00)
377 Zafehouse: Diaries Sep 6, 2013 $1.9926% (67%)50,000 .. 100,0000%00:00 (00:00)
378 Infinity Runner Jul 14, 2014 $6.9926% (67%/56%)0 .. 20,0000%00:00 (00:00)
379 RISK: Factions Mar 8, 2011 $9.9924% (66%/77%)50,000 .. 100,0001.69%09:23 (03:07)
380 Nomad Fleet Jul 14, 2015 $9.9924% (66%)20,000 .. 50,0000%00:00 (00:00)
381 Assassin’s Creed Chronicles: India Jan 12, 2016 $9.9924% (66%)50,000 .. 100,0000%00:00 (00:00)
382 Sengoku Sep 15, 2011 $9.9924% (66%/70%)100,000 .. 200,0000.85%02:33 (00:51)
383 Mad Combat Marines Jul 13, 2016 $0.9924% (66%)20,000 .. 50,0000%00:00 (00:00)
384 Scourge: Outbreak Apr 2, 2014 $7.9924% (66%)100,000 .. 200,0000%00:00 (00:00)
385 1849 May 8, 2014 $14.9924% (66%)20,000 .. 50,0000%00:00 (00:00)
386 Zombie Camp Jul 31, 2016 $1.99N/A (N/A)0 .. 20,0000%00:00 (00:00)
387 Fair Strike Feb 5, 2004 $3.99N/A (N/A/56%)0 .. 20,00012.5%18:17 (06:05)
388 Commander Cool 2 Dec 17, 2015 $2.99N/A (N/A)20,000 .. 50,0002.13%02:00 (01:12)
389 Sky To Fly: Faster Than Wind Mar 25, 2016 $3.99N/A (N/A)0 .. 20,0000%00:00 (00:00)
390 Urban Pirate Jun 17, 2016 $6.99N/A (N/A)0 .. 20,0000%00:00 (00:00)
391 Alea Jacta Est Sep 27, 2012 $24.9924% (66%)20,000 .. 50,0000%00:00 (00:00)
392 1775: Rebellion Sep 29, 2016 $24.99N/A (N/A)0 .. 20,0004.84%01:18 (00:59)
393 Quick Slick Deadly Sep 21, 2015 $1.99N/A (N/A)20,000 .. 50,0000%00:00 (00:00)
394 Zombie City Defense 2 Aug 19, 2016 $9.9924% (66%)0 .. 20,0000%00:00 (00:00)
395 Men of War: Condemned Heroes Apr 12, 2012 $7.9923% (65%/57%)100,000 .. 200,0000%00:00 (00:00)
396 Disney Pirates of the Caribbean: At Worlds End May 22, 2007 $19.9923% (65%)0 .. 20,0000%00:00 (00:00)
397 7th Legion Jan 1, 1997 $6.9923% (65%)20,000 .. 50,0000%00:00 (00:00)
398 Theatre of War 2: Africa 1943 Apr 24, 2009 $4.9923% (65%/63%)100,000 .. 200,0000%00:00 (00:00)
399 Ground Breakers Jun 15, 2016 $4.99N/A (N/A)0 .. 20,0000%00:00 (00:00)
400 Zombie Tycoon 2: Brainhov's Revenge Dec 9, 2013 $4.9923% (65%)50,000 .. 100,0000%00:00 (00:00)
401 The Seven Years War (1756-1763) Oct 30, 2015 $19.9923% (65%)0 .. 20,0000%00:00 (00:00)
402 Marauder Sep 10, 2009 $9.9923% (65%)50,000 .. 100,0002.63%00:05 (00:01)
403 Revenge of Roger Rouge Apr 22, 2016 $0.99N/A (N/A)20,000 .. 50,0000%00:00 (00:00)
404 Jagged Alliance: Crossfire Aug 24, 2012 $14.9922% (64%/63%)100,000 .. 200,0000%00:00 (00:00)
405 Link Apr 22, 2016 $4.99N/A (N/A)0 .. 20,0000%00:00 (00:00)
406 Warlock 2: The Exiled Apr 10, 2014 $19.9922% (64%/73%)50,000 .. 100,0001.39%02:56 (00:58)
407 Frozen Synapse Prime Nov 14, 2014 $24.9922% (64%/83%)100,000 .. 200,0000.88%01:17 (00:50)
408 Zoo Rampage Jul 9, 2014 $3.9922% (64%)0 .. 20,0000%00:00 (00:00)
409 Kaiju-A-GoGo Apr 23, 2015 $9.9922% (64%)20,000 .. 50,0000%00:00 (00:00)
410 Theatre of War 2: Kursk 1943 Mar 9, 2010 $4.9922% (64%)50,000 .. 100,0000.96%01:37 (00:32)
411 Hunters Of The Dead Sep 4, 2014 $4.9922% (64%)20,000 .. 50,0000%00:00 (00:00)
412 Devil's Dare 悪魔の挑戦 Oct 21, 2014 $12.9922% (64%)20,000 .. 50,0000%00:00 (00:00)
413 Double Dragon IV Jan 30, 2017 $6.9921% (63%/50%)0 .. 20,00010%12:05 (04:01)
414 The Few Jun 18, 2014 $7.9921% (63%)20,000 .. 50,0000%00:00 (00:00)
415 Overruled! Sep 15, 2015 $12.99N/A (N/A)20,000 .. 50,0000%00:00 (00:00)
416 A Game of Dwarves Oct 23, 2012 $9.9921% (63%/60%)50,000 .. 100,0000.91%00:04 (00:01)
417 Pixel Boy and the Ever Expanding Dungeon May 30, 2014 $0.9921% (63%)20,000 .. 50,0000%00:00 (00:00)
418 Port Royale 2 Apr 30, 2004 $4.9921% (63%/75%)50,000 .. 100,0000%00:00 (00:00)
419 Battle Worlds: Kronos Nov 4, 2013 $19.9921% (63%/71%)20,000 .. 50,0004%07:17 (02:25)
420 Beasts Battle Jun 15, 2016 $1.99N/A (N/A)0 .. 20,0000%00:00 (00:00)
421 Malebolgia May 6, 2015 $12.9921% (63%)0 .. 20,0000%00:00 (00:00)
422 Will Fight for Food: Super Actual Sellout: Game of the Hour Apr 22, 2015 $5.99N/A (N/A)0 .. 20,0000%00:00 (00:00)
423 Platypus II Mar 17, 2007 $6.9921% (63%)200,000 .. 500,0000.15%00:03 (00:01)
424 My Super Tower 2 Jan 27, 2017 $0.49N/A (N/A)0 .. 20,0000%00:00 (00:00)
425 Hyperspace Pinball Sep 30, 2015 $2.99N/A (N/A)0 .. 20,0000%00:00 (00:00)
426 Disney Epic Mickey 2: The Power of Two Nov 18, 2012 $19.9920% (62%)20,000 .. 50,0003.85%00:37 (00:12)
427 To End All Wars Aug 29, 2014 $39.9920% (62%/71%)0 .. 20,0000%00:00 (00:00)
428 Rise: Battle Lines Nov 17, 2015 $1.99N/A (N/A)0 .. 20,0000%00:00 (00:00)
429 SPACECOM Sep 17, 2014 $9.9920% (62%/68%)100,000 .. 200,0002.51%01:39 (01:50)
430 Goblin Defenders: Steel‘n’ Wood Aug 21, 2013 $2.9920% (62%)20,000 .. 50,0000%00:00 (00:00)
431 4089: Ghost Within Jan 9, 2015 $5.9920% (62%)0 .. 20,0000%00:00 (00:00)
432 Spirit of War Mar 12, 2015 $9.99N/A (N/A)20,000 .. 50,0000%00:00 (00:00)
433 UnSummoning: the Spectral Horde Dec 21, 2015 FreeN/A (N/A)0 .. 20,0000%00:00 (00:00)
434 Sorcerer King: Rivals Sep 22, 2016 $13.4920% (62%)20,000 .. 50,0000%00:00 (00:00)
435 Desert Ashes Nov 10, 2014 $4.99N/A (N/A)20,000 .. 50,0001.22%00:01 (00:00)
436 Call of Duty: Black Ops - Mac Edition Sep 27, 2012 $19.9919% (61%)50,000 .. 100,0000%00:00 (00:00)
437 Bombshell Jan 29, 2016 $34.9919% (61%)20,000 .. 50,0007.04%02:59 (03:23)
438 Legions of Steel Jul 16, 2015 $19.99N/A (N/A/64%)0 .. 20,0000%00:00 (00:00)
439 Supreme Ruler: Cold War Jul 29, 2011 $9.9919% (61%/63%)20,000 .. 50,0000%00:00 (00:00)
440 Gnumz: Masters of Defense Dec 21, 2015 $4.99N/A (N/A)20,000 .. 50,0000%00:00 (00:00)
441 Freight Tycoon Inc. Aug 15, 2007 $4.9919% (61%)20,000 .. 50,0000%00:00 (00:00)
442 Disciples III - Renaissance Steam Special Edition Jul 16, 2010 $14.9919% (61%/56%)100,000 .. 200,0000%00:00 (00:00)
443 Men of War: Vietnam Sep 8, 2011 $7.9919% (61%/68%)100,000 .. 200,0000.62%00:10 (00:03)
444 Purgatory Jun 22, 2016 $0.9919% (61%)200,000 .. 500,0000.07%03:31 (01:10)
445 War, the Game Jan 12, 2015 $6.9919% (61%/65%)20,000 .. 50,0000%00:00 (00:00)
446 Spice Road Apr 24, 2014 $19.9919% (61%)0 .. 20,0000%00:00 (00:00)
447 Hybrid Wars Sep 29, 2016 $6.9917% (60%/54%)0 .. 20,0000%00:00 (00:00)
448 Merchants of Kaidan Nov 10, 2014 $14.9917% (60%)100,000 .. 200,0000.23%00:05 (00:01)
449 BattleLore: Command Nov 25, 2014 $6.9917% (60%)0 .. 20,0000%00:00 (00:00)
450 NOBUNAGA'S AMBITION: Sphere of Influence - Ascension / 信長の野望・創造 戦国立志伝 Mar 23, 2016 $59.9917% (60%)100,000 .. 200,0000%00:00 (00:00)
451 Woolfe - The Red Hood Diaries Mar 17, 2015 $9.9917% (60%/55%)50,000 .. 100,0000.91%01:44 (00:34)
452 Assault on Arnhem Mar 11, 2016 $9.99N/A (N/A)0 .. 20,0002.22%02:38 (00:52)
453 Flashback Oct 1, 2013 $9.9917% (60%)20,000 .. 50,0000%00:00 (00:00)
454 Close Combat - Panthers in the Fog Nov 19, 2012 $39.9917% (60%)0 .. 20,0000%00:00 (00:00)
455 Defend Your Crypt Jul 21, 2016 $2.99N/A (N/A)0 .. 20,0000%00:00 (00:00)
456 7 Grand Steps: What Ancients Begat Jun 7, 2013 $19.9916% (59%)100,000 .. 200,0000%00:00 (00:00)
457 Code of Princess Apr 14, 2016 $14.9916% (59%/53%)0 .. 20,0000%00:00 (00:00)
458 E.T. Armies Mar 3, 2016 $14.9916% (59%/54%)0 .. 20,0000%00:00 (00:00)
459 Ninjahtic Mind Tricks Jul 16, 2015 $1.99N/A (N/A)0 .. 20,0000%00:00 (00:00)
460 Wanderlust Adventures Aug 10, 2015 $9.9916% (59%)20,000 .. 50,0000%00:00 (00:00)
461 Heavy Fire: Afghanistan Aug 15, 2014 $2.9916% (59%)20,000 .. 50,0000%00:00 (00:00)
462 Patrician IV - Steam Special Edition Sep 17, 2010 $14.9916% (59%/66%)100,000 .. 200,0000%00:00 (00:00)
463 Skyshine's BEDLAM Sep 16, 2015 $19.9916% (59%/67%)20,000 .. 50,0000%00:00 (00:00)
464 Prospekt Feb 18, 2016 $9.9916% (59%)20,000 .. 50,0000%00:00 (00:00)
465 Antisquad Oct 31, 2014 $5.9916% (59%)50,000 .. 100,0000%00:00 (00:00)
466 Battleplan: American Civil War Jul 4, 2014 $9.9916% (59%/66%)100,000 .. 200,0000.2%03:47 (01:15)
467 Quarantine May 24, 2017 $9.9916% (59%)0 .. 20,0000%00:00 (00:00)
468 Armada 2526 Gold Edition Feb 28, 2013 $19.9916% (59%/66%)20,000 .. 50,0000%00:00 (00:00)
469 Gates of Horizon Dec 18, 2014 $9.9915% (58%)0 .. 20,0004.76%00:01 (00:00)
470 Ceres Oct 16, 2015 $19.9915% (58%/74%)0 .. 20,0000%00:00 (00:00)
471 Life in Bunker Feb 25, 2016 $15.9915% (58%)0 .. 20,0000%00:00 (00:00)
472 Colonial Conquest Jul 28, 2015 $9.9915% (58%)0 .. 20,0000%00:00 (00:00)
473 Sir! I'd Like To Report A Bug! Oct 19, 2015 $1.99N/A (N/A)0 .. 20,0008.33%03:46 (01:15)
474 Prophour23 Oct 22, 2014 $9.99N/A (N/A)0 .. 20,0001.69%04:03 (01:21)
475 Check vs Mate Aug 16, 2012 $19.9915% (58%/69%)0 .. 20,0000%00:00 (00:00)
476 Woodle Tree 2: Worlds Sep 16, 2016 $3.9915% (58%)50,000 .. 100,0000.65%00:02 (00:00)
477 Cemetery Warrior 3 Feb 3, 2017 $0.9915% (58%)50,000 .. 100,0000%00:00 (00:00)
478 Unearthed: Trail of Ibn Battuta - Episode 1 - Gold Edition Jan 3, 2014 $4.9914% (57%)20,000 .. 50,0000%00:00 (00:00)
479 DreamBreak Jul 21, 2016 $6.99N/A (N/A/46%)20,000 .. 50,0000%00:00 (00:00)
480 Rise of Venice Sep 27, 2013 $19.9913% (56%/66%)50,000 .. 100,0001.43%00:02 (00:00)
481 Crazy Forest Jul 6, 2016 $4.99N/A (N/A)100,000 .. 200,0000%00:00 (00:00)
482 Horizon Feb 6, 2014 $29.9913% (56%/58%)50,000 .. 100,0000%00:00 (00:00)
483 Super Helmets on Fire DX Ultra Edition Plus Alpha Feb 15, 2016 $0.99N/A (N/A)0 .. 20,0000%00:00 (00:00)
484 Delve Deeper Sep 24, 2010 $4.9913% (56%)50,000 .. 100,0000%00:00 (00:00)
485 Stay Dead Evolution Feb 4, 2015 $5.99N/A (N/A)20,000 .. 50,0000%00:00 (00:00)
486 Story Of the Survivor Feb 17, 2016 $2.99N/A (N/A)50,000 .. 100,0000%00:00 (00:00)
487 Abalone Apr 23, 2014 $6.9913% (56%)20,000 .. 50,0000%00:00 (00:00)
488 reconquest Dec 16, 2016 $4.7913% (55%)0 .. 20,0000%00:00 (00:00)
489 Pain Train Jan 11, 2017 $0.9913% (55%)50,000 .. 100,0000%00:00 (00:00)
490 Adventure World Aug 2, 2016 $4.99N/A (N/A)0 .. 20,0000%00:00 (00:00)
491 Gettysburg: The Tide Turns Jul 14, 2017 $9.99N/A (N/A)0 .. 20,0000%00:00 (00:00)
492 VR Journey Dec 15, 2016 $2.99N/A (N/A)20,000 .. 50,0000.87%02:03 (00:41)
493 Dawn of Andromeda May 4, 2017 $29.9912% (54%/70%)0 .. 20,0000%00:00 (00:00)
494 BC Kings Sep 15, 2008 $4.9912% (54%)20,000 .. 50,0000%00:00 (00:00)
495 Urja Jan 9, 2015 $9.9912% (54%)20,000 .. 50,0000%00:00 (00:00)
496 RESCUE 2: Everyday Heroes Jun 3, 2015 $19.9912% (54%)20,000 .. 50,0000%00:00 (00:00)
497 Crusaders: Thy Kingdom Come Oct 8, 2009 $9.99N/A (N/A)0 .. 20,0000%00:00 (00:00)
498 Sovereignty: Crown of Kings Feb 2, 2017 $24.9911% (53%)0 .. 20,0000%00:00 (00:00)
499 Tic-Toc-Tower Sep 28, 2015 $2.99N/A (N/A)0 .. 20,0000%00:00 (00:00)
500 Smugglers 5 Apr 11, 2014 $6.9911% (53%)20,000 .. 50,0000%00:00 (00:00)
501 Wickland Nov 14, 2014 $0.9911% (53%)50,000 .. 100,0000%00:00 (00:00)
502 Castle Werewolf 3D Feb 7, 2017 $2.99N/A (N/A)50,000 .. 100,0000.26%00:19 (00:06)
503 Armada 2526 Jun 10, 2010 $14.99N/A (N/A/66%)0 .. 20,0000%00:00 (00:00)
504 MDK2 HD Jul 30, 2012 $14.9911% (53%/73%)0 .. 20,0000%00:00 (00:00)
505 Grim Seventh Jan 20, 2017 FreeN/A (N/A)0 .. 20,0000%00:00 (00:00)
506 The Stalin Subway Oct 5, 2006 $3.9911% (52%)20,000 .. 50,0000%00:00 (00:00)
507 MinosMaze - The Minotaur's Labyrinth May 1, 2017 $4.99N/A (N/A)0 .. 20,0002.38%00:01 (00:00)
508 Weather Lord: The Successor's Path Apr 8, 2015 $4.99N/A (N/A)0 .. 20,0000%00:00 (00:00)
509 Meridian: Squad 22 Aug 11, 2016 $14.99N/A (N/A)0 .. 20,0000%00:00 (00:00)
510 Dusty Revenge:Co-Op Edition Feb 17, 2014 $14.9911% (52%)50,000 .. 100,0000%00:00 (00:00)
511 Nightside Apr 2, 2015 $4.9910% (51%)20,000 .. 50,0000%00:00 (00:00)
512 Meridian: New World Apr 4, 2014 $6.9910% (51%/43%)100,000 .. 200,0000.65%00:49 (00:16)
513 Biodrone Battle Jul 16, 2015 $1.9910% (51%)100,000 .. 200,0000%00:00 (00:00)
514 Royal Bounty HD Aug 10, 2015 $2.9910% (51%)0 .. 20,0005.26%00:01 (00:00)
515 Defence to death May 11, 2017 $1.99N/A (N/A)50,000 .. 100,0000.27%04:18 (01:26)
516 Scapeland Mar 31, 2016 $3.99N/A (N/A)0 .. 20,0000%00:00 (00:00)
517 Chronostorm: Siberian Border Apr 2, 2009 $0.99N/A (N/A)0 .. 20,0000%00:00 (00:00)
518 Guncraft Aug 9, 2013 $14.999% (50%/73%)100,000 .. 200,0000%00:00 (00:00)
519 Aggression: Europe Under Fire May 10, 2007 $9.999% (50%)50,000 .. 100,0000%00:00 (00:00)
520 No Pineapple Left Behind Feb 18, 2016 $6.99N/A (N/A/59%)0 .. 20,0000%00:00 (00:00)
521 Albedo: Eyes from Outer Space Apr 10, 2015 $14.999% (49%/66%)50,000 .. 100,0000%00:00 (00:00)
522 Kidnapped Aug 4, 2015 $2.999% (49%)100,000 .. 200,0000.28%00:41 (00:13)
523 Synonymy Dec 12, 2014 $1.99N/A (N/A)0 .. 20,0000%00:00 (00:00)
524 Rubber and Lead Sep 4, 2015 $4.99N/A (N/A)20,000 .. 50,0000%00:00 (00:00)
525 Star Traders: 4X Empires Nov 18, 2014 $9.99N/A (N/A)0 .. 20,0006.25%02:18 (00:46)
526 Marvel: Ultimate Alliance 2 Jul 26, 2016 N/A8% (48%)0 .. 20,0000%00:00 (00:00)
527 The Stalin Subway: Red Veil Oct 5, 2006 $2.998% (47%)50,000 .. 100,0000%00:00 (00:00)
528 Blasting Agent: Ultimate Edition Aug 17, 2016 $2.99N/A (N/A)0 .. 20,0000%00:00 (00:00)
529 Disposable Heroes Oct 1, 2015 $4.99N/A (N/A)20,000 .. 50,0000%00:00 (00:00)
530 Hero Generations Apr 10, 2015 $5.998% (47%)0 .. 20,0000%00:00 (00:00)
531 Aegis Oct 6, 2016 $2.99N/A (N/A)0 .. 20,0000%00:00 (00:00)
532 Z Steel Soldiers Aug 1, 2014 $12.998% (47%)50,000 .. 100,0000.93%04:16 (01:50)
533 Odd||Even Apr 6, 2016 $0.99N/A (N/A)20,000 .. 50,0000%00:00 (00:00)
534 Hell Nov 13, 2014 $29.99N/A (N/A)0 .. 20,0000%00:00 (00:00)
535 Pride of Nations Jun 8, 2011 $19.997% (46%/70%)20,000 .. 50,0000%00:00 (00:00)
536 Crossfire: Dungeons Jan 15, 2007 $3.997% (46%)0 .. 20,0000%00:00 (00:00)
537 World War 2: Time of Wrath Jun 15, 2009 $4.997% (46%)20,000 .. 50,0000%00:00 (00:00)
538 Magic Quest May 6, 2016 $1.99N/A (N/A)50,000 .. 100,0000%00:00 (00:00)
539 ALONE IN SPACE Feb 27, 2016 $9.997% (46%)0 .. 20,0000%00:00 (00:00)
540 PeriAreion Feb 19, 2015 $5.99N/A (N/A)0 .. 20,0000%00:00 (00:00)
541 Carrier Command: Gaea Mission Sep 28, 2012 $32.997% (46%/60%)200,000 .. 500,0000.48%00:48 (00:16)
542 HitBox Jan 30, 2017 Free7% (46%)0 .. 20,0002.33%00:09 (00:03)
543 Megamagic: Wizards of the Neon Age Apr 20, 2016 $9.99N/A (N/A/67%)20,000 .. 50,0001.09%02:03 (00:41)
544 Battle Chess: Game of Kings Dec 11, 2015 $29.997% (45%)0 .. 20,0000%00:00 (00:00)
545 The Campaign Series: Fall Weiss May 30, 2014 $14.997% (45%)20,000 .. 50,0000%00:00 (00:00)
546 Impire Feb 14, 2013 $19.997% (45%/45%)100,000 .. 200,0000%00:00 (00:00)
547 Skyward Collapse May 23, 2013 $0.997% (45%/64%)100,000 .. 200,0000%00:00 (00:00)
548 Commander: Conquest of the Americas Jul 30, 2010 $9.996% (44%/68%)50,000 .. 100,0000%00:00 (00:00)
549 Island Defense Jul 23, 2015 $1.99N/A (N/A)50,000 .. 100,0000.36%00:01 (00:00)
550 Redemption: Saints And Sinners Nov 18, 2016 $0.996% (44%)50,000 .. 100,0000.39%05:02 (01:40)
551 The Bluecoats: North vs South May 10, 2012 $4.996% (44%)50,000 .. 100,0000%00:00 (00:00)
552 The Entente Gold Aug 11, 2003 $0.596% (43%)50,000 .. 100,0000%00:00 (00:00)
553 Vendetta - Curse of Raven's Cry Nov 20, 2015 $29.996% (43%)0 .. 20,0002.44%06:53 (02:17)
554 Dungeons Feb 10, 2011 $9.996% (43%/65%)200,000 .. 500,0000%00:00 (00:00)
555 Rulers of Nations Jul 16, 2014 $19.996% (43%/63%)0 .. 20,0000%00:00 (00:00)
556 Sword of the Stars II: Enhanced Edition Nov 30, 2012 $19.996% (42%/65%)100,000 .. 200,0000%00:00 (00:00)
557 Samudai Feb 9, 2015 $2.99N/A (N/A)20,000 .. 50,0000%00:00 (00:00)
558 Burstfire Sep 24, 2015 N/A6% (42%)50,000 .. 100,0000%00:00 (00:00)
559 Nux Dec 26, 2006 $6.996% (42%)100,000 .. 200,0000%00:00 (00:00)
560 Hydraulic Empire Jul 31, 2015 $7.99N/A (N/A)0 .. 20,0000%00:00 (00:00)
561 Knight Adventure Oct 15, 2015 $0.99N/A (N/A)50,000 .. 100,0000%00:00 (00:00)
562 Pain Train 2 Mar 16, 2017 $0.695% (40%)20,000 .. 50,0001.49%03:02 (01:00)
563 Strategic War in Europe Mar 21, 2014 $14.995% (40%)20,000 .. 50,0002.06%03:21 (02:14)
564 Heavy Fire: Shattered Spear Oct 23, 2015 $3.99N/A (N/A)0 .. 20,0000%00:00 (00:00)
565 The Kings' Crusade Oct 8, 2010 $9.995% (40%/71%)50,000 .. 100,0000%00:00 (00:00)
566 Dark Matter Oct 17, 2013 $9.995% (39%)0 .. 20,0000%00:00 (00:00)
567 Devils & Demons Oct 6, 2015 $9.99N/A (N/A)20,000 .. 50,0000%00:00 (00:00)
568 Wave of Darkness Nov 5, 2015 $29.99N/A (N/A)0 .. 20,0003.23%02:31 (00:50)
569 Mechs & Mercs: Black Talons Jan 9, 2015 $9.995% (39%)0 .. 20,0005%01:46 (00:35)
570 Dungeons - The Dark Lord Sep 27, 2011 $19.995% (39%/72%)100,000 .. 200,0000%00:00 (00:00)
571 Risk Jun 10, 2013 $9.995% (39%)20,000 .. 50,0000%00:00 (00:00)
572 Gratuitous Space Battles 2 Apr 16, 2015 $9.995% (39%)20,000 .. 50,0000%00:00 (00:00)
573 Infection: Humanity's Last Gasp May 26, 2016 $9.99N/A (N/A)0 .. 20,0001.47%00:54 (00:18)
574 Control Craft 2 Feb 15, 2016 $2.99N/A (N/A)0 .. 20,0001.52%05:58 (01:59)
575 Dead But Alive! Southern England Oct 2, 2015 $14.99N/A (N/A)0 .. 20,0000%00:00 (00:00)
576 Lost in Paradise Aug 20, 2015 $2.99N/A (N/A)20,000 .. 50,0001.41%00:03 (00:01)
577 Blue Sheep Mar 31, 2016 $1.99N/A (N/A)0 .. 20,0000%00:00 (00:00)
578 Zombie Apocalypse: Escape The Undead City Jun 17, 2016 $0.994% (37%)0 .. 20,0000%00:00 (00:00)
579 Stellar Impact Apr 12, 2012 $9.994% (37%/74%)50,000 .. 100,0000%00:00 (00:00)
580 Tiamat X May 29, 2015 $1.99N/A (N/A)50,000 .. 100,0000%00:00 (00:00)
581 Urban Empire Jan 20, 2017 $29.993% (35%/62%)50,000 .. 100,0000%00:00 (00:00)
582 Sim Junta Aug 18, 2015 $1.993% (35%)0 .. 20,0000%00:00 (00:00)
583 Shadows of War Sep 19, 2014 $2.993% (35%)20,000 .. 50,0000%00:00 (00:00)
584 Into the Void Dec 4, 2015 $4.99N/A (N/A)20,000 .. 50,0000%00:00 (00:00)
585 Fallen: A2P Protocol Aug 14, 2015 $9.993% (34%)20,000 .. 50,0000%00:00 (00:00)
586 Disciples III - Resurrection Oct 11, 2011 $14.993% (34%/63%)100,000 .. 200,0000%00:00 (00:00)
587 Arma Tactics Oct 1, 2013 $8.993% (34%/47%)200,000 .. 500,0000.2%00:01 (00:00)
588 CTU: Counter Terrorism Unit Apr 22, 2016 $1.49N/A (N/A)0 .. 20,0000%00:00 (00:00)
589 Ranger of the jungle Jul 18, 2016 $3.99N/A (N/A)0 .. 20,0000%00:00 (00:00)
590 Jagged Alliance Flashback Oct 21, 2014 $19.993% (33%)20,000 .. 50,0000%00:00 (00:00)
591 Kick-Ass 2 Aug 15, 2014 $19.993% (33%)20,000 .. 50,0000%00:00 (00:00)
592 Ku: Shroud of the Morrigan Mar 17, 2014 $4.993% (32%)20,000 .. 50,0000%00:00 (00:00)
593 Psichodelya Aug 8, 2014 $1.992% (31%)100,000 .. 200,0000.35%04:18 (01:26)
594 Zombie Zoeds May 20, 2015 $2.992% (31%)200,000 .. 500,0006.25%04:33 (01:31)
595 Evopollution Apr 23, 2014 $4.992% (31%)0 .. 20,0000%00:00 (00:00)
596 A Game of Thrones - Genesis Sep 29, 2011 $9.992% (31%)100,000 .. 200,0000%00:00 (00:00)
597 Ground Pounders Jul 15, 2014 $4.99N/A (N/A)0 .. 20,0000%00:00 (00:00)
598 Power of Defense Aug 4, 2010 $9.99N/A (N/A)0 .. 20,0000%00:00 (00:00)
599 Robotex Nov 18, 2014 $4.992% (30%)100,000 .. 200,0000%00:00 (00:00)
600 Defenders of Time Nov 4, 2014 N/AN/A (N/A/55%)0 .. 20,0000%00:00 (00:00)
601 Tank Operations: European Campaign Nov 22, 2013 $19.992% (29%)20,000 .. 50,0000%00:00 (00:00)
602 Zombies on a Plane Mar 25, 2016 $4.99N/A (N/A)0 .. 20,0000%00:00 (00:00)
603 Solar Shifter EX Sep 11, 2015 $4.99N/A (N/A)20,000 .. 50,0000%00:00 (00:00)
604 Gridberd Sep 7, 2015 $1.39N/A (N/A)200,000 .. 500,0000.14%02:05 (00:41)
605 One Star Apr 17, 2017 $2.99N/A (N/A)50,000 .. 100,0000.34%00:05 (00:01)
606 Hard Truck Apocalypse: Arcade / Ex Machina: Arcade May 24, 2007 $4.991% (25%)20,000 .. 50,0000%00:00 (00:00)
607 APOX Jan 20, 2011 $14.991% (23%/48%)20,000 .. 50,0000%00:00 (00:00)
608 Elite vs. Freedom May 31, 2016 $0.841% (23%)0 .. 20,0000%00:00 (00:00)
609 The Asskickers-Steam Edition Feb 6, 2015 $9.99N/A (N/A)0 .. 20,0000%00:00 (00:00)
610 Lords of the Black Sun Sep 12, 2014 $29.991% (21%)20,000 .. 50,0000%00:00 (00:00)
611 Gemini Wars Nov 2, 2012 $14.991% (20%/53%)20,000 .. 50,0000%00:00 (00:00)
612 Human Extinction Simulator Jan 21, 2015 $19.99N/A (N/A)0 .. 20,0000%00:00 (00:00)
613 Star Project Aug 4, 2016 $1.99N/A (N/A)100,000 .. 200,0000%00:00 (00:00)
614 Tryst Sep 14, 2012 $14.99N/A (N/A/50%)0 .. 20,0000%00:00 (00:00)
615 Prison Tycoon 3: Lockdown Aug 1, 2007 $9.991% (17%)20,000 .. 50,0000%00:00 (00:00)
616 Once Bitten, Twice Dead! Jul 17, 2015 $4.99N/A (N/A)20,000 .. 50,0000%00:00 (00:00)
617 Citadels Jul 25, 2013 $14.990% (13%/20%)20,000 .. 50,0000%00:00 (00:00)
618 Bloodbath Jun 16, 2014 $14.99N/A (N/A)0 .. 20,0000%00:00 (00:00)
619 Magnetic By Nature Nov 10, 2014 $9.99N/A (N/A)20,000 .. 50,0000%00:00 (00:00)

Tags over time:

Access restricted.

This feature is only available to users with special access rights. Sorry.

If you want to proceed, you need to register or log in first and then back Steam Spy on Patreon. Look for Indie or Pro pledge.

Don't forget to use the same email as on Steam Spy!

Owners of this game also own:

Access restricted.

This feature is only available to users with special access rights. Sorry.

If you want to proceed, you need to register or log in first and then back Steam Spy on Patreon. Look for Indie or Pro pledge.

Don't forget to use the same email as on Steam Spy!

Playtime distribution:

Access restricted.

This feature is only available to users with special access rights. Sorry.

If you want to proceed, you need to register or log in first and then back Steam Spy on Patreon. Look for Indie or Pro pledge.

Don't forget to use the same email as on Steam Spy!

Playtime (2 weeks):

Access restricted.

This feature is only available to users with special access rights. Sorry.

If you want to proceed, you need to register or log in first and then back Steam Spy on Patreon. Look for Indie or Pro pledge.

Don't forget to use the same email as on Steam Spy!

User reviews:

Login required.

Please register or log in to see this information.